Time;durP1;ratioP1;P1;durP2;ratioP2;P2;SDS_P1;SDS_P2;PMS_P1;PMS_P2;Temp;Humidity;BMP_temperature;BMP_pressure;BME280_temperature;BME280_humidity;BME280_pressure;Samples;Min_cycle;Max_cycle;Signal;HPM_P1;HPM_P2
2021/12/24 00:00:44;;;;;;;3.67;3.47;;;;;;;;;;5068546;28;20223;-70
2021/12/24 00:03:31;;;;;;;3.30;3.10;;;;;;;;;;5065925;28;20263;-70
2021/12/24 00:06:19;;;;;;;3.20;3.00;;;;;;;;;;5067146;28;20360;-71
2021/12/24 00:09:06;;;;;;;3.40;3.20;;;;;;;;;;5064471;28;20683;-71
2021/12/24 00:11:56;;;;;;;3.37;3.10;;;;;;;;;;5065546;28;20209;-70
2021/12/24 00:14:50;;;;;;;2.80;2.60;;;;;;;;;;5068746;28;20739;-71
2021/12/24 00:17:38;;;;;;;3.10;2.90;;;;;;;;;;5063287;28;21209;-70
2021/12/24 00:21:14;;;;;;;2.50;2.40;;;;;;;;;;5064436;28;20895;-71
2021/12/24 00:36:09;;;;;;;2.33;2.23;;;;;;;;;;5067895;28;20683;-71
2021/12/24 00:38:57;;;;;;;2.37;2.27;;;;;;;;;;5062402;28;20575;-71
2021/12/24 00:41:43;;;;;;;2.10;2.00;;;;;;;;;;5067504;28;20347;-70
2021/12/24 00:44:30;;;;;;;2.00;1.90;;;;;;;;;;5065629;28;20282;-71
2021/12/24 00:47:19;;;;;;;1.93;1.83;;;;;;;;;;5066987;28;20359;-71
2021/12/24 00:50:10;;;;;;;2.20;2.10;;;;;;;;;;5067937;28;20243;-71
2021/12/24 00:53:02;;;;;;;1.60;1.60;;;;;;;;;;5065234;28;20216;-70
2021/12/24 00:55:48;;;;;;;1.70;1.60;;;;;;;;;;5066660;28;20211;-71
2021/12/24 00:58:36;;;;;;;1.43;1.43;;;;;;;;;;5069556;28;20247;-71
2021/12/24 01:01:23;;;;;;;1.20;1.20;;;;;;;;;;5069250;28;20298;-71
2021/12/24 01:04:11;;;;;;;1.50;1.50;;;;;;;;;;5069193;28;20344;-70
2021/12/24 01:06:58;;;;;;;1.50;1.50;;;;;;;;;;5070036;28;20266;-71
2021/12/24 01:09:45;;;;;;;1.37;1.37;;;;;;;;;;5067891;28;20350;-71
2021/12/24 01:12:32;;;;;;;1.43;1.43;;;;;;;;;;5069999;28;20261;-71
2021/12/24 01:15:20;;;;;;;1.07;1.07;;;;;;;;;;5069853;28;20300;-71
2021/12/24 01:18:13;;;;;;;1.10;1.10;;;;;;;;;;5070095;28;20619;-70
2021/12/24 01:21:16;;;;;;;1.10;1.10;;;;;;;;;;5069782;28;20211;-71
2021/12/24 01:24:04;;;;;;;1.30;1.30;;;;;;;;;;5068729;28;20195;-71
2021/12/24 01:27:00;;;;;;;0.90;0.90;;;;;;;;;;5068400;28;20231;-70
2021/12/24 01:29:58;;;;;;;1.00;1.00;;;;;;;;;;5070374;28;20735;-70
2021/12/24 01:39:07;;;;;;;0.90;0.90;;;;;;;;;;5068822;28;20217;-71
2021/12/24 01:44:59;;;;;;;0.80;0.80;;;;;;;;;;5069232;28;20647;-70
2021/12/24 01:47:47;;;;;;;0.80;0.80;;;;;;;;;;5070018;28;20210;-71
2021/12/24 01:50:35;;;;;;;0.70;0.70;;;;;;;;;;5068481;28;20213;-70
2021/12/24 01:53:24;;;;;;;0.60;0.60;;;;;;;;;;5069116;28;20285;-71
2021/12/24 01:56:13;;;;;;;0.70;0.70;;;;;;;;;;5069692;28;20200;-71
2021/12/24 01:58:59;;;;;;;0.70;0.70;;;;;;;;;;5069612;28;20216;-70
2021/12/24 02:01:46;;;;;;;0.70;0.70;;;;;;;;;;5071084;28;20240;-65
2021/12/24 02:04:34;;;;;;;0.67;0.67;;;;;;;;;;5068103;28;20270;-65
2021/12/24 02:07:21;;;;;;;0.70;0.70;;;;;;;;;;5069566;28;20232;-64
2021/12/24 02:10:10;;;;;;;0.70;0.70;;;;;;;;;;5067091;28;20252;-65
2021/12/24 02:12:59;;;;;;;0.60;0.60;;;;;;;;;;5066745;28;20656;-65
2021/12/24 02:16:02;;;;;;;0.77;0.77;;;;;;;;;;5070234;28;20281;-65
2021/12/24 02:28:22;;;;;;;0.60;0.60;;;;;;;;;;5067547;28;20291;-65
2021/12/24 02:31:11;;;;;;;0.70;0.70;;;;;;;;;;5062632;28;20299;-65
2021/12/24 02:33:58;;;;;;;0.80;0.80;;;;;;;;;;5064680;28;20275;-65
2021/12/24 02:36:45;;;;;;;0.40;0.40;;;;;;;;;;5070872;28;20198;-64
2021/12/24 02:39:33;;;;;;;0.70;0.70;;;;;;;;;;5069734;28;20214;-64
2021/12/24 02:42:23;;;;;;;0.53;0.53;;;;;;;;;;5064101;28;20223;-64
2021/12/24 02:45:11;;;;;;;0.80;0.80;;;;;;;;;;5069747;28;20207;-64
2021/12/24 02:48:14;;;;;;;0.50;0.50;;;;;;;;;;5068046;28;20204;-64
2021/12/24 02:54:08;;;;;;;0.80;0.80;;;;;;;;;;5069164;28;20290;-65
2021/12/24 02:57:06;;;;;;;0.63;0.63;;;;;;;;;;5067475;28;20293;-64
2021/12/24 03:00:00;;;;;;;0.60;0.60;;;;;;;;;;5057875;28;20211;-64
2021/12/24 03:02:49;;;;;;;0.43;0.43;;;;;;;;;;5069364;28;20254;-65
2021/12/24 03:05:36;;;;;;;0.50;0.50;;;;;;;;;;5067845;28;20288;-65
2021/12/24 03:08:23;;;;;;;0.60;0.60;;;;;;;;;;5053878;28;20204;-65
2021/12/24 03:11:10;;;;;;;0.53;0.50;;;;;;;;;;5067271;28;20207;-65
2021/12/24 03:13:59;;;;;;;0.40;0.40;;;;;;;;;;5068509;28;20810;-65
2021/12/24 03:16:52;;;;;;;0.50;0.50;;;;;;;;;;5069793;28;20208;-66
2021/12/24 03:19:39;;;;;;;0.37;0.37;;;;;;;;;;5067151;28;20213;-64
2021/12/24 03:22:39;;;;;;;0.53;0.53;;;;;;;;;;5067545;28;20209;-64
2021/12/24 03:25:26;;;;;;;0.50;0.50;;;;;;;;;;5068834;28;20289;-64
2021/12/24 03:28:13;;;;;;;0.47;0.47;;;;;;;;;;5067534;28;20203;-65
2021/12/24 03:31:02;;;;;;;0.50;0.50;;;;;;;;;;5068794;28;20242;-66
2021/12/24 03:33:53;;;;;;;0.47;0.47;;;;;;;;;;5068747;28;20236;-65
2021/12/24 03:36:40;;;;;;;0.50;0.50;;;;;;;;;;5067997;28;20609;-64
2021/12/24 03:39:27;;;;;;;0.40;0.40;;;;;;;;;;5069359;28;20235;-65
2021/12/24 03:42:14;;;;;;;0.53;0.53;;;;;;;;;;5067744;28;20280;-65
2021/12/24 03:45:09;;;;;;;0.40;0.40;;;;;;;;;;5068091;28;20245;-65
2021/12/24 03:48:01;;;;;;;0.30;0.30;;;;;;;;;;5067424;28;20228;-65
2021/12/24 03:50:56;;;;;;;0.43;0.43;;;;;;;;;;5067362;28;20298;-65
2021/12/24 03:56:48;;;;;;;0.50;0.50;;;;;;;;;;5051352;28;20219;-65
2021/12/24 03:59:35;;;;;;;0.60;0.60;;;;;;;;;;5067641;28;20243;-65
2021/12/24 04:02:22;;;;;;;0.60;0.60;;;;;;;;;;5068527;28;20245;-64
2021/12/24 04:05:11;;;;;;;0.53;0.53;;;;;;;;;;5069269;28;20219;-65
2021/12/24 04:07:58;;;;;;;0.53;0.53;;;;;;;;;;5067866;28;20314;-65
2021/12/24 04:10:45;;;;;;;0.50;0.50;;;;;;;;;;5065703;28;20289;-65
2021/12/24 04:13:32;;;;;;;0.57;0.57;;;;;;;;;;5067744;28;20298;-65
2021/12/24 04:16:19;;;;;;;0.60;0.60;;;;;;;;;;5066373;28;20829;-71
2021/12/24 04:19:24;;;;;;;0.60;0.60;;;;;;;;;;5068237;28;20198;-71
2021/12/24 04:25:18;;;;;;;0.60;0.60;;;;;;;;;;5066741;28;20207;-69
2021/12/24 04:28:05;;;;;;;0.57;0.57;;;;;;;;;;5064286;28;20231;-70
2021/12/24 04:30:53;;;;;;;0.50;0.50;;;;;;;;;;5070582;28;20208;-70
2021/12/24 04:33:45;;;;;;;0.50;0.50;;;;;;;;;;5066847;28;20270;-71
2021/12/24 04:36:47;;;;;;;0.53;0.53;;;;;;;;;;5070628;28;20231;-70
2021/12/24 04:39:46;;;;;;;0.50;0.50;;;;;;;;;;5070110;28;20203;-71
2021/12/24 04:51:50;;;;;;;0.50;0.50;;;;;;;;;;5070383;28;20250;-71
2021/12/24 05:01:20;;;;;;;0.60;0.60;;;;;;;;;;5048638;28;20212;-70
2021/12/24 05:04:10;;;;;;;0.60;0.60;;;;;;;;;;5071398;28;20231;-70
2021/12/24 05:07:06;;;;;;;0.40;0.40;;;;;;;;;;5072087;28;20703;-70
2021/12/24 05:09:54;;;;;;;0.40;0.40;;;;;;;;;;5066992;28;20679;-70
2021/12/24 05:12:41;;;;;;;0.40;0.40;;;;;;;;;;5070393;28;20692;-70
2021/12/24 05:15:29;;;;;;;0.30;0.30;;;;;;;;;;5070372;28;20288;-71
2021/12/24 05:18:31;;;;;;;0.40;0.40;;;;;;;;;;5070381;28;20216;-71
2021/12/24 05:21:35;;;;;;;0.63;0.63;;;;;;;;;;5071418;28;20206;-71
2021/12/24 05:24:27;;;;;;;0.40;0.40;;;;;;;;;;5070479;28;20199;-71
2021/12/24 05:27:15;;;;;;;0.30;0.30;;;;;;;;;;5068893;28;20246;-70
2021/12/24 05:30:03;;;;;;;0.50;0.40;;;;;;;;;;5071111;28;20257;-71
2021/12/24 05:32:50;;;;;;;0.40;0.40;;;;;;;;;;5068535;28;20738;-71
2021/12/24 05:35:37;;;;;;;0.30;0.30;;;;;;;;;;5070526;28;20210;-70
2021/12/24 05:38:24;;;;;;;0.20;0.20;;;;;;;;;;5070635;28;20241;-70
2021/12/24 05:41:11;;;;;;;0.30;0.30;;;;;;;;;;5069154;28;20593;-71
2021/12/24 05:44:02;;;;;;;0.30;0.30;;;;;;;;;;5060774;28;20324;-70
2021/12/24 05:46:49;;;;;;;0.30;0.30;;;;;;;;;;5070412;28;20227;-71
2021/12/24 05:49:36;;;;;;;0.30;0.30;;;;;;;;;;5068869;28;20633;-70
2021/12/24 05:52:23;;;;;;;0.30;0.30;;;;;;;;;;5070017;28;20660;-71
2021/12/24 05:55:10;;;;;;;0.20;0.20;;;;;;;;;;5070487;28;20242;-70
2021/12/24 05:57:57;;;;;;;0.50;0.50;;;;;;;;;;5068918;28;20280;-71
2021/12/24 06:00:48;;;;;;;0.30;0.30;;;;;;;;;;5069990;28;20294;-71
2021/12/24 06:03:35;;;;;;;0.37;0.37;;;;;;;;;;5067710;28;20254;-71
2021/12/24 06:06:22;;;;;;;0.40;0.40;;;;;;;;;;5070148;28;20243;-71
2021/12/24 06:09:09;;;;;;;0.30;0.30;;;;;;;;;;5069256;28;20211;-71
2021/12/24 06:11:56;;;;;;;0.30;0.30;;;;;;;;;;5066495;28;20297;-70
2021/12/24 06:14:45;;;;;;;0.30;0.30;;;;;;;;;;5070331;28;20239;-71
2021/12/24 06:17:36;;;;;;;0.50;0.50;;;;;;;;;;5069186;28;20207;-71
2021/12/24 06:20:25;;;;;;;0.30;0.30;;;;;;;;;;5068279;28;20203;-71
2021/12/24 06:23:12;;;;;;;0.30;0.30;;;;;;;;;;5064418;28;20292;-71
2021/12/24 06:26:00;;;;;;;0.40;0.40;;;;;;;;;;5070166;28;20211;-70
2021/12/24 06:28:47;;;;;;;0.50;0.50;;;;;;;;;;5068978;28;20824;-70
2021/12/24 06:31:34;;;;;;;0.40;0.40;;;;;;;;;;5069566;28;20286;-71
2021/12/24 06:34:22;;;;;;;0.30;0.30;;;;;;;;;;5068320;28;20199;-71
2021/12/24 06:37:09;;;;;;;0.50;0.50;;;;;;;;;;5067407;28;20306;-71
2021/12/24 06:39:56;;;;;;;0.90;0.90;;;;;;;;;;5068185;28;20287;-70
2021/12/24 06:42:44;;;;;;;1.40;1.40;;;;;;;;;;5066021;28;20703;-70
2021/12/24 06:45:32;;;;;;;1.13;1.13;;;;;;;;;;5055816;28;20203;-71
2021/12/24 06:48:19;;;;;;;0.90;0.90;;;;;;;;;;5069152;28;20329;-71
2021/12/24 06:51:07;;;;;;;1.27;1.27;;;;;;;;;;5067875;28;20242;-71
2021/12/24 06:53:55;;;;;;;0.93;0.93;;;;;;;;;;5069299;28;20298;-71
2021/12/24 06:56:42;;;;;;;1.10;1.10;;;;;;;;;;5069083;28;20239;-71
2021/12/24 06:59:29;;;;;;;1.00;1.00;;;;;;;;;;5068590;28;20215;-71
2021/12/24 07:02:16;;;;;;;0.87;0.87;;;;;;;;;;5069350;28;20217;-71
2021/12/24 07:05:04;;;;;;;0.80;0.80;;;;;;;;;;5066461;28;20321;-70
2021/12/24 07:07:52;;;;;;;0.93;0.93;;;;;;;;;;5068854;28;20780;-70
2021/12/24 07:10:39;;;;;;;0.67;0.67;;;;;;;;;;5066704;28;20709;-70
2021/12/24 07:13:27;;;;;;;0.70;0.70;;;;;;;;;;5068041;28;20715;-70
2021/12/24 07:16:14;;;;;;;0.80;0.80;;;;;;;;;;5068468;28;20206;-70
2021/12/24 07:19:01;;;;;;;0.60;0.60;;;;;;;;;;5068195;28;20297;-70
2021/12/24 07:21:48;;;;;;;0.60;0.60;;;;;;;;;;5066646;28;20609;-69
2021/12/24 07:24:37;;;;;;;0.50;0.50;;;;;;;;;;5069766;28;20709;-70
2021/12/24 07:27:24;;;;;;;0.50;0.50;;;;;;;;;;5066537;28;20572;-71
2021/12/24 07:30:12;;;;;;;0.50;0.50;;;;;;;;;;5067304;28;20231;-70
2021/12/24 07:32:59;;;;;;;0.40;0.40;;;;;;;;;;5067975;28;20318;-71
2021/12/24 07:35:47;;;;;;;0.37;0.37;;;;;;;;;;5065346;28;20207;-71
2021/12/24 07:38:34;;;;;;;0.47;0.40;;;;;;;;;;5068788;28;20209;-70
2021/12/24 07:41:24;;;;;;;0.33;0.33;;;;;;;;;;5066136;28;20254;-71
2021/12/24 07:44:11;;;;;;;0.30;0.30;;;;;;;;;;5061890;28;20214;-71
2021/12/24 07:47:00;;;;;;;0.30;0.30;;;;;;;;;;5067964;28;20303;-70
2021/12/24 07:49:49;;;;;;;0.37;0.37;;;;;;;;;;5067763;28;20241;-70
2021/12/24 07:52:36;;;;;;;0.30;0.30;;;;;;;;;;5068094;28;20226;-70
2021/12/24 07:55:23;;;;;;;0.50;0.50;;;;;;;;;;5067975;28;20242;-70
2021/12/24 07:58:14;;;;;;;0.50;0.50;;;;;;;;;;5066850;28;20282;-70
2021/12/24 08:01:00;;;;;;;0.10;0.10;;;;;;;;;;5054251;28;20225;-70
2021/12/24 08:03:47;;;;;;;0.27;0.27;;;;;;;;;;5068247;28;20270;-71
2021/12/24 08:06:34;;;;;;;0.30;0.30;;;;;;;;;;5067334;28;20214;-70
2021/12/24 08:09:21;;;;;;;0.30;0.30;;;;;;;;;;5065705;28;20230;-70
2021/12/24 08:12:11;;;;;;;0.20;0.20;;;;;;;;;;5062608;28;20234;-70
2021/12/24 08:14:59;;;;;;;0.10;0.10;;;;;;;;;;5059079;28;20270;-70
2021/12/24 08:17:47;;;;;;;0.10;0.10;;;;;;;;;;5067058;28;20204;-71
2021/12/24 08:20:34;;;;;;;0.30;0.30;;;;;;;;;;5069312;28;20679;-70
2021/12/24 08:23:21;;;;;;;0.30;0.30;;;;;;;;;;5068374;28;20288;-70
2021/12/24 08:26:08;;;;;;;0.20;0.20;;;;;;;;;;5065912;28;20204;-70
2021/12/24 08:28:55;;;;;;;0.20;0.20;;;;;;;;;;5064707;28;20255;-71
2021/12/24 08:31:43;;;;;;;0.50;0.50;;;;;;;;;;5062868;28;20682;-70
2021/12/24 08:34:31;;;;;;;0.20;0.20;;;;;;;;;;5066569;28;20362;-71
2021/12/24 08:37:17;;;;;;;0.50;0.50;;;;;;;;;;5065742;28;20203;-70
2021/12/24 08:40:06;;;;;;;0.87;0.57;;;;;;;;;;5067526;28;20207;-70
2021/12/24 08:42:53;;;;;;;0.60;0.60;;;;;;;;;;5065460;28;20211;-70
2021/12/24 08:45:40;;;;;;;0.60;0.60;;;;;;;;;;5068024;28;20280;-70
2021/12/24 08:48:28;;;;;;;0.80;0.80;;;;;;;;;;5068991;28;20228;-70
2021/12/24 08:51:15;;;;;;;0.70;0.70;;;;;;;;;;5064994;28;20220;-70
2021/12/24 08:54:02;;;;;;;0.60;0.60;;;;;;;;;;5068076;28;20231;-71
2021/12/24 08:56:49;;;;;;;0.70;0.70;;;;;;;;;;5066487;28;20222;-71
2021/12/24 08:59:36;;;;;;;0.83;0.73;;;;;;;;;;5067409;28;20684;-71
2021/12/24 09:02:23;;;;;;;0.60;0.60;;;;;;;;;;5066902;28;20207;-71
2021/12/24 09:05:13;;;;;;;0.50;0.50;;;;;;;;;;5066077;28;20785;-70
2021/12/24 09:08:01;;;;;;;0.70;0.70;;;;;;;;;;5065082;28;20702;-71
2021/12/24 09:10:48;;;;;;;0.60;0.60;;;;;;;;;;5065935;28;20207;-70
2021/12/24 09:13:35;;;;;;;0.47;0.47;;;;;;;;;;5063190;28;20215;-70
2021/12/24 09:16:22;;;;;;;0.60;0.47;;;;;;;;;;5065303;28;20215;-71
2021/12/24 09:19:12;;;;;;;0.63;0.63;;;;;;;;;;5069615;28;20696;-71
2021/12/24 09:22:01;;;;;;;0.60;0.60;;;;;;;;;;5070335;28;20211;-71
2021/12/24 09:24:50;;;;;;;0.50;0.50;;;;;;;;;;5069782;28;20692;-71
2021/12/24 09:27:37;;;;;;;0.40;0.40;;;;;;;;;;5066988;28;20226;-71
2021/12/24 09:30:25;;;;;;;0.40;0.40;;;;;;;;;;5067541;28;20666;-70
2021/12/24 09:33:12;;;;;;;0.30;0.30;;;;;;;;;;5069950;28;20253;-70
2021/12/24 09:35:59;;;;;;;0.27;0.27;;;;;;;;;;5067955;28;20219;-71
2021/12/24 09:38:47;;;;;;;0.37;0.37;;;;;;;;;;5067779;28;20211;-71
2021/12/24 09:41:34;;;;;;;0.30;0.30;;;;;;;;;;5070418;28;20632;-71
2021/12/24 09:44:22;;;;;;;0.40;0.40;;;;;;;;;;5068989;28;20211;-71
2021/12/24 09:47:09;;;;;;;0.30;0.30;;;;;;;;;;5070727;28;20282;-70
2021/12/24 09:49:56;;;;;;;0.30;0.30;;;;;;;;;;5069930;28;20300;-70
2021/12/24 09:52:44;;;;;;;0.40;0.40;;;;;;;;;;5063192;28;20351;-71
2021/12/24 09:55:32;;;;;;;0.30;0.30;;;;;;;;;;5069981;28;20250;-70
2021/12/24 09:58:19;;;;;;;0.40;0.40;;;;;;;;;;5069215;28;20210;-71
2021/12/24 10:01:06;;;;;;;0.20;0.20;;;;;;;;;;5068619;28;20254;-70
2021/12/24 10:04:02;;;;;;;0.50;0.50;;;;;;;;;;5069496;28;20752;-71
2021/12/24 10:06:51;;;;;;;0.50;0.50;;;;;;;;;;5068407;28;20211;-71
2021/12/24 10:09:40;;;;;;;0.60;0.60;;;;;;;;;;5067169;28;20685;-70
2021/12/24 10:12:28;;;;;;;1.33;1.27;;;;;;;;;;5070785;28;20700;-71
2021/12/24 10:15:15;;;;;;;1.63;1.53;;;;;;;;;;5067536;28;20200;-71
2021/12/24 10:18:02;;;;;;;3.23;1.73;;;;;;;;;;5067745;28;20631;-71
2021/12/24 10:20:58;;;;;;;1.90;1.80;;;;;;;;;;5067183;28;20304;-70
2021/12/24 10:23:49;;;;;;;2.00;1.90;;;;;;;;;;5060435;28;20654;-70
2021/12/24 10:26:38;;;;;;;2.10;1.90;;;;;;;;;;5069110;28;20679;-71
2021/12/24 10:29:32;;;;;;;2.30;2.20;;;;;;;;;;5066203;28;20308;-70
2021/12/24 10:32:19;;;;;;;1.83;1.73;;;;;;;;;;5068004;28;20207;-71
2021/12/24 10:35:18;;;;;;;2.00;1.90;;;;;;;;;;5070011;28;20212;-70
2021/12/24 10:38:13;;;;;;;1.80;1.70;;;;;;;;;;5069055;28;20234;-71
2021/12/24 10:41:06;;;;;;;1.90;1.80;;;;;;;;;;5059299;28;20208;-71
2021/12/24 10:43:53;;;;;;;2.10;1.90;;;;;;;;;;5066917;28;20201;-71
2021/12/24 10:46:56;;;;;;;1.60;1.50;;;;;;;;;;5066765;28;20218;-70
2021/12/24 10:49:55;;;;;;;1.47;1.43;;;;;;;;;;5068365;28;20359;-71
2021/12/24 10:53:14;;;;;;;1.20;1.20;;;;;;;;;;5069393;28;20265;-71
2021/12/24 10:56:01;;;;;;;1.10;1.10;;;;;;;;;;5067779;28;20205;-71
2021/12/24 10:58:48;;;;;;;1.57;1.20;;;;;;;;;;5068450;28;20257;-70
2021/12/24 11:01:35;;;;;;;1.00;1.00;;;;;;;;;;5067671;28;20210;-71
2021/12/24 11:04:35;;;;;;;1.00;1.00;;;;;;;;;;5067458;28;20260;-70
2021/12/24 11:07:35;;;;;;;1.40;1.30;;;;;;;;;;5056684;28;20206;-71
2021/12/24 11:10:24;;;;;;;0.90;0.80;;;;;;;;;;5064208;28;20207;-70
2021/12/24 11:13:14;;;;;;;1.00;1.00;;;;;;;;;;5066113;28;20304;-70
2021/12/24 11:16:03;;;;;;;0.77;0.70;;;;;;;;;;5067266;28;20719;-70
2021/12/24 11:18:56;;;;;;;0.80;0.80;;;;;;;;;;5058722;28;20203;-71
2021/12/24 11:21:44;;;;;;;0.70;0.70;;;;;;;;;;5067607;28;20219;-71
2021/12/24 11:24:31;;;;;;;0.70;0.70;;;;;;;;;;5069615;28;20209;-70
2021/12/24 11:27:18;;;;;;;0.80;0.80;;;;;;;;;;5067494;28;20288;-71
2021/12/24 11:30:06;;;;;;;0.60;0.60;;;;;;;;;;5068461;28;20293;-71
2021/12/24 11:32:53;;;;;;;0.50;0.50;;;;;;;;;;5068599;28;20664;-71
2021/12/24 11:35:41;;;;;;;0.40;0.40;;;;;;;;;;5067646;28;20215;-71
2021/12/24 11:38:32;;;;;;;0.40;0.40;;;;;;;;;;5069400;28;20287;-71
2021/12/24 11:41:21;;;;;;;0.50;0.50;;;;;;;;;;5067920;28;20207;-71
2021/12/24 11:44:10;;;;;;;0.37;0.37;;;;;;;;;;5067699;28;20223;-71
2021/12/24 11:46:57;;;;;;;0.40;0.40;;;;;;;;;;5053210;28;20235;-71
2021/12/24 11:49:44;;;;;;;0.50;0.50;;;;;;;;;;5066667;28;20229;-71
2021/12/24 11:52:31;;;;;;;0.40;0.40;;;;;;;;;;5068144;28;20321;-71
2021/12/24 11:55:20;;;;;;;0.47;0.47;;;;;;;;;;5068569;28;20236;-71
2021/12/24 11:58:10;;;;;;;0.40;0.40;;;;;;;;;;5067586;28;20206;-70
2021/12/24 12:00:57;;;;;;;0.20;0.20;;;;;;;;;;5068724;28;20287;-71
2021/12/24 12:03:46;;;;;;;0.33;0.33;;;;;;;;;;5066641;28;20772;-71
2021/12/24 12:06:35;;;;;;;0.30;0.30;;;;;;;;;;5066022;28;20665;-71
2021/12/24 12:09:22;;;;;;;0.37;0.37;;;;;;;;;;5065081;28;20318;-70
2021/12/24 12:12:16;;;;;;;0.40;0.40;;;;;;;;;;5065850;28;20218;-71
2021/12/24 12:15:22;;;;;;;0.20;0.20;;;;;;;;;;5066437;28;20207;-70
2021/12/24 12:18:13;;;;;;;0.37;0.30;;;;;;;;;;5064231;28;20214;-70
2021/12/24 12:21:09;;;;;;;0.30;0.30;;;;;;;;;;5067886;28;20210;-70
2021/12/24 12:27:34;;;;;;;0.33;0.33;;;;;;;;;;5066931;28;20263;-70
2021/12/24 12:30:27;;;;;;;0.33;0.33;;;;;;;;;;5067168;28;20323;-70
2021/12/24 12:33:15;;;;;;;0.50;0.50;;;;;;;;;;5066753;28;20211;-70
2021/12/24 12:36:06;;;;;;;0.60;0.60;;;;;;;;;;5068723;28;20209;-70
2021/12/24 12:38:53;;;;;;;0.40;0.40;;;;;;;;;;5067743;28;20285;-70
2021/12/24 12:41:49;;;;;;;0.50;0.50;;;;;;;;;;5066137;28;20220;-70
2021/12/24 12:44:38;;;;;;;1.47;0.87;;;;;;;;;;5052820;28;20217;-70
2021/12/24 12:47:28;;;;;;;0.50;0.50;;;;;;;;;;5067939;28;20691;-70
2021/12/24 12:50:17;;;;;;;0.60;0.60;;;;;;;;;;5067818;28;20220;-70
2021/12/24 12:53:28;;;;;;;0.50;0.50;;;;;;;;;;5069362;28;20235;-70
2021/12/24 12:56:26;;;;;;;0.50;0.50;;;;;;;;;;5070232;28;20211;-70
2021/12/24 12:59:20;;;;;;;0.87;0.87;;;;;;;;;;5069532;28;20326;-69
2021/12/24 13:02:11;;;;;;;0.50;0.50;;;;;;;;;;5073222;28;20257;-70
2021/12/24 13:05:11;;;;;;;0.70;0.70;;;;;;;;;;5070873;28;20251;-70
2021/12/24 13:08:11;;;;;;;0.60;0.60;;;;;;;;;;5064244;28;20208;-70
2021/12/24 13:11:01;;;;;;;0.40;0.40;;;;;;;;;;5071219;28;20215;-69
2021/12/24 13:13:54;;;;;;;0.63;0.63;;;;;;;;;;5070803;28;20207;-70
2021/12/24 13:16:45;;;;;;;0.50;0.50;;;;;;;;;;5070042;28;20203;-69
2021/12/24 13:22:40;;;;;;;0.40;0.40;;;;;;;;;;5069072;28;20210;-70
2021/12/24 13:25:27;;;;;;;0.40;0.40;;;;;;;;;;5070908;28;20265;-71
2021/12/24 13:28:14;;;;;;;0.50;0.50;;;;;;;;;;5070543;28;20294;-70
2021/12/24 13:31:13;;;;;;;0.40;0.40;;;;;;;;;;5070736;28;20206;-70
2021/12/24 13:34:00;;;;;;;0.40;0.40;;;;;;;;;;5060231;28;20336;-70
2021/12/24 13:36:49;;;;;;;0.30;0.30;;;;;;;;;;5070787;28;20207;-70
2021/12/24 13:39:36;;;;;;;0.30;0.30;;;;;;;;;;5069083;28;20285;-70
2021/12/24 13:42:23;;;;;;;0.20;0.20;;;;;;;;;;5066388;28;20660;-70
2021/12/24 13:45:10;;;;;;;0.30;0.30;;;;;;;;;;5070454;28;20280;-70
2021/12/24 13:48:01;;;;;;;0.30;0.30;;;;;;;;;;5070812;28;20269;-70
2021/12/24 13:56:57;;;;;;;0.60;0.60;;;;;;;;;;5068882;28;20206;-70
2021/12/24 13:59:51;;;;;;;0.50;0.50;;;;;;;;;;5052591;28;20210;-71
2021/12/24 14:02:37;;;;;;;0.50;0.50;;;;;;;;;;5070291;28;20703;-70
2021/12/24 14:05:25;;;;;;;0.60;0.60;;;;;;;;;;5062457;28;20725;-70
2021/12/24 14:08:14;;;;;;;0.70;0.70;;;;;;;;;;5069481;28;20222;-70
2021/12/24 14:11:06;;;;;;;0.60;0.60;;;;;;;;;;5068192;28;20267;-70
2021/12/24 14:13:58;;;;;;;0.60;0.60;;;;;;;;;;5069992;28;20220;-70
2021/12/24 14:17:00;;;;;;;0.67;0.67;;;;;;;;;;5071073;28;20731;-70
2021/12/24 14:20:00;;;;;;;0.60;0.60;;;;;;;;;;5068516;28;20218;-70
2021/12/24 14:22:47;;;;;;;0.50;0.50;;;;;;;;;;5069471;28;20200;-70
2021/12/24 14:25:34;;;;;;;0.80;0.80;;;;;;;;;;5070160;28;20290;-70
2021/12/24 14:28:24;;;;;;;0.40;0.40;;;;;;;;;;5067388;28;20243;-70
2021/12/24 14:31:11;;;;;;;0.57;0.50;;;;;;;;;;5056497;28;20893;-70
2021/12/24 14:33:58;;;;;;;0.50;0.50;;;;;;;;;;5067445;28;20697;-70
2021/12/24 14:36:57;;;;;;;0.80;0.70;;;;;;;;;;5069809;28;20689;-70
2021/12/24 14:39:45;;;;;;;0.43;0.43;;;;;;;;;;5067236;28;20226;-70
2021/12/24 14:42:39;;;;;;;0.50;0.50;;;;;;;;;;5067716;28;20209;-70
2021/12/24 14:45:33;;;;;;;0.50;0.50;;;;;;;;;;5069190;28;20212;-70
2021/12/24 14:48:24;;;;;;;0.37;0.37;;;;;;;;;;5069403;28;20265;-71
2021/12/24 14:51:11;;;;;;;0.57;0.57;;;;;;;;;;5066853;28;20225;-70
2021/12/24 14:54:05;;;;;;;0.60;0.43;;;;;;;;;;5069185;28;20216;-70
2021/12/24 14:56:52;;;;;;;0.30;0.30;;;;;;;;;;5069739;28;20305;-70
2021/12/24 14:59:39;;;;;;;0.40;0.40;;;;;;;;;;5068732;28;20659;-70
2021/12/24 15:02:27;;;;;;;0.50;0.50;;;;;;;;;;5068664;28;20679;-70
2021/12/24 15:05:24;;;;;;;0.50;0.50;;;;;;;;;;5068751;28;20818;-70
2021/12/24 15:08:15;;;;;;;0.50;0.50;;;;;;;;;;5067021;28;20341;-70
2021/12/24 15:11:11;;;;;;;0.23;0.20;;;;;;;;;;5063965;28;20228;-70
2021/12/24 15:14:00;;;;;;;0.57;0.40;;;;;;;;;;5068675;28;20227;-70
2021/12/24 15:16:50;;;;;;;0.30;0.30;;;;;;;;;;5068183;28;20220;-70
2021/12/24 15:19:38;;;;;;;0.30;0.30;;;;;;;;;;5052415;28;20686;-71
2021/12/24 15:22:25;;;;;;;0.30;0.30;;;;;;;;;;5067035;28;20200;-70
2021/12/24 15:25:12;;;;;;;0.40;0.40;;;;;;;;;;5067967;28;20209;-71
2021/12/24 15:28:06;;;;;;;0.30;0.30;;;;;;;;;;5067866;28;20211;-70
2021/12/24 15:30:54;;;;;;;0.40;0.40;;;;;;;;;;5068479;28;20229;-71
2021/12/24 15:33:42;;;;;;;0.37;0.37;;;;;;;;;;5068990;28;20325;-69
2021/12/24 15:36:30;;;;;;;0.30;0.30;;;;;;;;;;5068421;28;20294;-70
2021/12/24 15:39:17;;;;;;;0.77;0.40;;;;;;;;;;5066883;28;20303;-70
2021/12/24 15:42:05;;;;;;;0.60;0.50;;;;;;;;;;5068171;28;20588;-73
2021/12/24 15:44:52;;;;;;;0.40;0.30;;;;;;;;;;5068153;28;20218;-70
2021/12/24 15:47:39;;;;;;;0.40;0.40;;;;;;;;;;5067994;28;20288;-70
2021/12/24 15:50:26;;;;;;;0.30;0.30;;;;;;;;;;5068424;28;20788;-71
2021/12/24 15:53:15;;;;;;;0.60;0.40;;;;;;;;;;5068479;28;20672;-71
2021/12/24 15:56:04;;;;;;;0.30;0.30;;;;;;;;;;5067658;28;20695;-70
2021/12/24 15:58:51;;;;;;;0.30;0.23;;;;;;;;;;5068435;28;20203;-70
2021/12/24 16:01:38;;;;;;;0.37;0.37;;;;;;;;;;5066664;28;20262;-71
2021/12/24 16:04:25;;;;;;;0.50;0.50;;;;;;;;;;5067740;28;20382;-71
2021/12/24 16:07:12;;;;;;;0.50;0.50;;;;;;;;;;5067915;28;20199;-70
2021/12/24 16:10:01;;;;;;;0.40;0.40;;;;;;;;;;5066211;28;20710;-69
2021/12/24 16:12:48;;;;;;;0.60;0.60;;;;;;;;;;5067490;28;20289;-70
2021/12/24 16:15:40;;;;;;;0.30;0.30;;;;;;;;;;5067971;28;20207;-71
2021/12/24 16:18:27;;;;;;;0.57;0.50;;;;;;;;;;5067480;28;20212;-70
2021/12/24 16:21:14;;;;;;;0.50;0.50;;;;;;;;;;5068327;28;20305;-70
2021/12/24 16:24:01;;;;;;;0.40;0.40;;;;;;;;;;5067279;28;20212;-70
2021/12/24 16:26:49;;;;;;;0.30;0.30;;;;;;;;;;5057618;28;20239;-70
2021/12/24 16:29:49;;;;;;;0.50;0.50;;;;;;;;;;5071165;28;20215;-71
2021/12/24 16:32:36;;;;;;;0.40;0.40;;;;;;;;;;5068538;28;20690;-70
2021/12/24 16:35:26;;;;;;;0.40;0.40;;;;;;;;;;5072244;28;20203;-70
2021/12/24 16:38:13;;;;;;;0.40;0.40;;;;;;;;;;5072029;28;20215;-71
2021/12/24 16:40:59;;;;;;;0.40;0.40;;;;;;;;;;5070938;28;20231;-70
2021/12/24 16:43:48;;;;;;;0.60;0.60;;;;;;;;;;5072097;28;20644;-70
2021/12/24 16:46:35;;;;;;;0.47;0.47;;;;;;;;;;5071504;28;20207;-70
2021/12/24 16:49:22;;;;;;;0.30;0.30;;;;;;;;;;5070128;28;20661;-70
2021/12/24 16:52:10;;;;;;;0.50;0.50;;;;;;;;;;5071814;28;20199;-70
2021/12/24 16:54:57;;;;;;;0.63;0.60;;;;;;;;;;5070382;28;20306;-70
2021/12/24 16:57:44;;;;;;;0.57;0.57;;;;;;;;;;5062513;28;20307;-70
2021/12/24 17:00:35;;;;;;;0.67;0.67;;;;;;;;;;5071059;28;20203;-70
2021/12/24 17:03:22;;;;;;;0.77;0.77;;;;;;;;;;5071989;28;20272;-70
2021/12/24 17:06:09;;;;;;;0.80;0.80;;;;;;;;;;5065429;28;20234;-70
2021/12/24 17:08:56;;;;;;;0.63;0.63;;;;;;;;;;5067318;28;20614;-70
2021/12/24 17:11:43;;;;;;;0.60;0.60;;;;;;;;;;5070253;28;20354;-70
2021/12/24 17:14:34;;;;;;;0.60;0.60;;;;;;;;;;5071928;28;20218;-70
2021/12/24 17:17:27;;;;;;;0.50;0.50;;;;;;;;;;5068818;28;20213;-70
2021/12/24 17:20:17;;;;;;;0.70;0.70;;;;;;;;;;5061990;28;20197;-70
2021/12/24 17:23:04;;;;;;;0.60;0.60;;;;;;;;;;5070884;28;20239;-70
2021/12/24 17:25:52;;;;;;;0.57;0.57;;;;;;;;;;5068032;28;20204;-71
2021/12/24 17:28:39;;;;;;;0.60;0.60;;;;;;;;;;5070812;28;20213;-71
2021/12/24 17:31:26;;;;;;;0.40;0.40;;;;;;;;;;5068434;28;20231;-71
2021/12/24 17:34:14;;;;;;;0.63;0.63;;;;;;;;;;5066651;28;20445;-71
2021/12/24 17:37:01;;;;;;;0.40;0.40;;;;;;;;;;5053206;28;20230;-70
2021/12/24 17:39:49;;;;;;;0.50;0.50;;;;;;;;;;5069479;28;20218;-71
2021/12/24 17:42:36;;;;;;;0.40;0.40;;;;;;;;;;5069631;28;20664;-70
2021/12/24 17:45:23;;;;;;;0.37;0.37;;;;;;;;;;5070946;28;20234;-71
2021/12/24 17:48:10;;;;;;;0.40;0.33;;;;;;;;;;5069302;28;20214;-70
2021/12/24 17:50:59;;;;;;;0.33;0.33;;;;;;;;;;5058928;28;20313;-70
2021/12/24 17:53:45;;;;;;;0.50;0.50;;;;;;;;;;5069817;28;20490;-70
2021/12/24 17:56:32;;;;;;;0.60;0.60;;;;;;;;;;5068678;28;20317;-69
2021/12/24 17:59:19;;;;;;;0.40;0.40;;;;;;;;;;5054066;28;20207;-70
2021/12/24 18:02:07;;;;;;;0.70;0.60;;;;;;;;;;5070153;28;20306;-70
2021/12/24 18:04:54;;;;;;;0.70;0.70;;;;;;;;;;5070665;28;20752;-71